This is the latest recevied weather packets stored in our database for station/object GUNLAK-WX. If no packets are shown the sender has not sent any weather packets the latest 1 day(s).
| Time | Temp. | Humidity | Pressure | Rain* | Wind** | Luminosity | Snow |
|---|---|---|---|---|---|---|---|
| 1778089577 | 12.22° C | 33% | 986.7 hPa | 0 mm | - | - | - |
| 1778086912 | 12.22° C | 34% | 987.2 hPa | 0 mm | - | - | - |
| 1778081493 | 10° C | 43% | 986.4 hPa | 0 mm | - | - | - |
| 1778078780 | 9.44° C | 52% | 986.5 hPa | 0 mm | - | - | - |
| 1778076980 | 8.33° C | 52% | 986.4 hPa | 0 mm | - | - | - |
| 1778076116 | 7.78° C | 48% | 986.1 hPa | 0 mm | - | - | - |
| 1778075176 | 7.78° C | 59% | 985.4 hPa | 0 mm | - | - | - |
| 1778071580 | 6.11° C | 71% | 984.4 hPa | 0 mm | - | - | - |
| 1778068923 | 5° C | 71% | 984.4 hPa | 0 mm | - | - | - |
| 1778065313 | 2.78° C | 76% | 983.7 hPa | 0 mm | - | - | - |
| 1778064376 | 2.78° C | 76% | 983.2 hPa | 0 mm | - | - | - |
| 1778063495 | 2.78° C | 74% | 983.7 hPa | 0 mm | - | - | - |
| 1778062578 | 2.78° C | 74% | 983.7 hPa | 0 mm | - | - | - |
| 1778061718 | 3.33° C | 74% | 983.7 hPa | 0 mm | - | - | - |
| 1778060778 | 3.33° C | 70% | 982.5 hPa | 0 mm | - | - | - |
| 1778059893 | 3.33° C | 70% | 983 hPa | 0 mm | - | - | - |
| 1778057177 | 3.89° C | 64% | 982.5 hPa | 0 mm | - | - | - |
| 1778056291 | 3.89° C | 69% | 983 hPa | 0 mm | - | - | - |
| 1778055376 | 4.44° C | 69% | 983 hPa | 0 mm | - | - | - |
| 1778052695 | 5° C | 70% | 982.8 hPa | 0 mm | - | - | - |
| 1778051776 | 5° C | 70% | 982.8 hPa | 0 mm | - | - | - |
| 1778050906 | 5.56° C | 70% | 982.8 hPa | 0 mm | - | - | - |
| 1778049976 | 5.56° C | 73% | 983 hPa | 0 mm | - | - | - |
| 1778049094 | 6.11° C | 73% | 983 hPa | 0 mm | - | - | - |
| 1778048176 | 6.11° C | 73% | 983 hPa | 0 mm | - | - | - |
* Rain latest hour (hover to see other rain measurements)
** Current wind speed in m/s (hover to see current wind gust speed)